sensor_id;sensor_type;location;lat;lon;timestamp;pressure;altitude;pressure_sealevel;temperature;humidity
36242;BME280;22283;42.748;12.732;2023-02-10T00:00:49;99671.94;;;-3.91;100.00
36242;BME280;22283;42.748;12.732;2023-02-10T00:05:50;99667.56;;;-3.97;100.00
36242;BME280;22283;42.748;12.732;2023-02-10T00:10:51;99661.59;;;-3.91;100.00
36242;BME280;22283;42.748;12.732;2023-02-10T00:15:52;99654.78;;;-3.80;100.00
36242;BME280;22283;42.748;12.732;2023-02-10T00:20:52;99652.19;;;-3.80;100.00
36242;BME280;22283;42.748;12.732;2023-02-10T00:25:53;99641.78;;;-3.89;100.00
36242;BME280;22283;42.748;12.732;2023-02-10T00:30:54;99643.38;;;-4.05;100.00
36242;BME280;22283;42.748;12.732;2023-02-10T00:35:54;99642.66;;;-3.90;100.00
36242;BME280;22283;42.748;12.732;2023-02-10T00:40:55;99652.09;;;-3.96;100.00
36242;BME280;22283;42.748;12.732;2023-02-10T00:45:55;99652.00;;;-4.03;100.00
36242;BME280;22283;42.748;12.732;2023-02-10T00:50:56;99646.03;;;-3.98;100.00
36242;BME280;22283;42.748;12.732;2023-02-10T00:55:57;99637.28;;;-4.09;100.00
36242;BME280;22283;42.748;12.732;2023-02-10T01:00:58;99652.63;;;-4.24;100.00
36242;BME280;22283;42.748;12.732;2023-02-10T01:05:58;99638.81;;;-4.29;100.00
36242;BME280;22283;42.748;12.732;2023-02-10T01:11:04;99640.69;;;-4.13;100.00
36242;BME280;22283;42.748;12.732;2023-02-10T01:16:06;99636.28;;;-4.26;100.00
36242;BME280;22283;42.748;12.732;2023-02-10T01:21:13;99635.19;;;-4.47;100.00
36242;BME280;22283;42.748;12.732;2023-02-10T01:26:16;99625.50;;;-4.64;100.00
36242;BME280;22283;42.748;12.732;2023-02-10T01:31:18;99640.09;;;-4.68;100.00
36242;BME280;22283;42.748;12.732;2023-02-10T01:36:23;99630.81;;;-4.54;100.00
36242;BME280;22283;42.748;12.732;2023-02-10T01:41:24;99623.09;;;-4.48;100.00
36242;BME280;22283;42.748;12.732;2023-02-10T01:46:33;99624.25;;;-4.21;100.00
36242;BME280;22283;42.748;12.732;2023-02-10T01:56:52;99605.97;;;-4.42;100.00
36242;BME280;22283;42.748;12.732;2023-02-10T02:01:54;99604.06;;;-4.59;100.00
36242;BME280;22283;42.748;12.732;2023-02-10T02:06:55;99595.47;;;-4.56;100.00
36242;BME280;22283;42.748;12.732;2023-02-10T02:12:25;99585.13;;;-4.58;100.00
36242;BME280;22283;42.748;12.732;2023-02-10T02:17:45;99593.66;;;-4.65;100.00
36242;BME280;22283;42.748;12.732;2023-02-10T02:23:05;99604.75;;;-4.72;100.00
36242;BME280;22283;42.748;12.732;2023-02-10T02:28:24;99601.97;;;-4.90;100.00
36242;BME280;22283;42.748;12.732;2023-02-10T02:33:39;99604.84;;;-4.66;100.00
36242;BME280;22283;42.748;12.732;2023-02-10T02:38:41;99610.00;;;-4.66;100.00
36242;BME280;22283;42.748;12.732;2023-02-10T02:43:43;99610.88;;;-4.65;100.00
36242;BME280;22283;42.748;12.732;2023-02-10T02:54:07;99619.13;;;-4.92;100.00
36242;BME280;22283;42.748;12.732;2023-02-10T02:59:33;99611.41;;;-4.91;100.00
36242;BME280;22283;42.748;12.732;2023-02-10T03:04:36;99614.78;;;-4.97;100.00
36242;BME280;22283;42.748;12.732;2023-02-10T03:09:37;99606.09;;;-5.05;100.00
36242;BME280;22283;42.748;12.732;2023-02-10T03:14:38;99600.81;;;-5.12;100.00
36242;BME280;22283;42.748;12.732;2023-02-10T03:19:39;99599.19;;;-5.06;100.00
36242;BME280;22283;42.748;12.732;2023-02-10T03:24:40;99590.84;;;-4.83;100.00
36242;BME280;22283;42.748;12.732;2023-02-10T03:29:40;99586.63;;;-4.75;100.00
36242;BME280;22283;42.748;12.732;2023-02-10T03:34:42;99575.47;;;-4.74;100.00
36242;BME280;22283;42.748;12.732;2023-02-10T03:39:43;99571.34;;;-4.57;100.00
36242;BME280;22283;42.748;12.732;2023-02-10T03:44:43;99584.16;;;-4.67;100.00
36242;BME280;22283;42.748;12.732;2023-02-10T03:49:44;99585.75;;;-4.79;100.00
36242;BME280;22283;42.748;12.732;2023-02-10T03:54:44;99578.75;;;-4.87;100.00
36242;BME280;22283;42.748;12.732;2023-02-10T03:59:45;99580.28;;;-5.05;100.00
36242;BME280;22283;42.748;12.732;2023-02-10T04:04:46;99575.72;;;-5.24;100.00
36242;BME280;22283;42.748;12.732;2023-02-10T04:09:47;99583.50;;;-5.20;100.00
36242;BME280;22283;42.748;12.732;2023-02-10T04:14:47;99584.31;;;-5.25;100.00
36242;BME280;22283;42.748;12.732;2023-02-10T04:19:48;99591.72;;;-5.50;100.00
36242;BME280;22283;42.748;12.732;2023-02-10T04:24:49;99596.81;;;-5.53;100.00
36242;BME280;22283;42.748;12.732;2023-02-10T04:29:49;99595.91;;;-5.55;100.00
36242;BME280;22283;42.748;12.732;2023-02-10T04:34:50;99596.00;;;-5.50;100.00
36242;BME280;22283;42.748;12.732;2023-02-10T04:39:50;99604.63;;;-5.50;100.00
36242;BME280;22283;42.748;12.732;2023-02-10T04:44:51;99610.53;;;-5.55;100.00
36242;BME280;22283;42.748;12.732;2023-02-10T04:49:52;99617.47;;;-5.51;100.00
36242;BME280;22283;42.748;12.732;2023-02-10T04:54:52;99614.94;;;-5.47;100.00
36242;BME280;22283;42.748;12.732;2023-02-10T04:59:53;99616.66;;;-5.49;100.00
36242;BME280;22283;42.748;12.732;2023-02-10T05:04:54;99611.50;;;-5.50;100.00
36242;BME280;22283;42.748;12.732;2023-02-10T05:09:54;99617.44;;;-5.54;100.00
36242;BME280;22283;42.748;12.732;2023-02-10T05:14:55;99629.25;;;-5.69;100.00
36242;BME280;22283;42.748;12.732;2023-02-10T05:19:56;99626.59;;;-5.73;100.00
36242;BME280;22283;42.748;12.732;2023-02-10T05:24:57;99626.69;;;-5.67;100.00
36242;BME280;22283;42.748;12.732;2023-02-10T05:29:58;99633.72;;;-5.57;100.00
36242;BME280;22283;42.748;12.732;2023-02-10T05:34:58;99615.06;;;-5.40;100.00
36242;BME280;22283;42.748;12.732;2023-02-10T05:39:59;99609.63;;;-5.59;100.00
36242;BME280;22283;42.748;12.732;2023-02-10T05:45:00;99608.75;;;-5.59;100.00
36242;BME280;22283;42.748;12.732;2023-02-10T05:50:00;99611.38;;;-5.58;100.00
36242;BME280;22283;42.748;12.732;2023-02-10T05:55:01;99615.56;;;-5.63;100.00
36242;BME280;22283;42.748;12.732;2023-02-10T06:00:06;99612.75;;;-5.78;100.00
36242;BME280;22283;42.748;12.732;2023-02-10T06:05:17;99601.63;;;-5.74;100.00
36242;BME280;22283;42.748;12.732;2023-02-10T06:10:17;99609.47;;;-5.68;100.00
36242;BME280;22283;42.748;12.732;2023-02-10T06:15:18;99613.97;;;-5.55;100.00
36242;BME280;22283;42.748;12.732;2023-02-10T06:20:19;99620.66;;;-5.69;100.00
36242;BME280;22283;42.748;12.732;2023-02-10T06:25:20;99646.63;;;-5.57;100.00
36242;BME280;22283;42.748;12.732;2023-02-10T06:30:20;99650.31;;;-5.41;100.00
36242;BME280;22283;42.748;12.732;2023-02-10T06:35:21;99656.13;;;-5.53;100.00
36242;BME280;22283;42.748;12.732;2023-02-10T06:40:22;99665.22;;;-5.20;100.00
36242;BME280;22283;42.748;12.732;2023-02-10T06:45:23;99680.06;;;-5.05;100.00
36242;BME280;22283;42.748;12.732;2023-02-10T06:50:24;99682.97;;;-4.79;100.00
36242;BME280;22283;42.748;12.732;2023-02-10T06:55:25;99687.44;;;-4.71;100.00
36242;BME280;22283;42.748;12.732;2023-02-10T07:00:25;99700.44;;;-4.60;100.00
36242;BME280;22283;42.748;12.732;2023-02-10T07:05:26;99693.16;;;-4.20;100.00
36242;BME280;22283;42.748;12.732;2023-02-10T07:10:27;99687.56;;;-3.78;100.00
36242;BME280;22283;42.748;12.732;2023-02-10T07:15:27;99673.31;;;-3.30;100.00
36242;BME280;22283;42.748;12.732;2023-02-10T07:20:28;99679.59;;;-2.95;99.44
36242;BME280;22283;42.748;12.732;2023-02-10T07:25:28;99677.94;;;-2.78;98.29
36242;BME280;22283;42.748;12.732;2023-02-10T07:30:29;99667.69;;;-2.60;97.69
36242;BME280;22283;42.748;12.732;2023-02-10T07:35:31;99671.25;;;-2.33;94.70
36242;BME280;22283;42.748;12.732;2023-02-10T07:40:32;99664.38;;;-2.13;90.22
36242;BME280;22283;42.748;12.732;2023-02-10T07:45:33;99660.09;;;-1.91;89.58
36242;BME280;22283;42.748;12.732;2023-02-10T07:50:33;99652.34;;;-1.69;89.11
36242;BME280;22283;42.748;12.732;2023-02-10T07:55:36;99648.88;;;-1.39;87.28
36242;BME280;22283;42.748;12.732;2023-02-10T08:00:37;99650.56;;;-1.17;83.99
36242;BME280;22283;42.748;12.732;2023-02-10T08:05:38;99670.47;;;-0.97;82.25
36242;BME280;22283;42.748;12.732;2023-02-10T08:10:39;99664.31;;;-0.66;80.92
36242;BME280;22283;42.748;12.732;2023-02-10T08:15:39;99667.69;;;-0.42;77.88
36242;BME280;22283;42.748;12.732;2023-02-10T08:20:40;99667.59;;;-0.24;76.34
36242;BME280;22283;42.748;12.732;2023-02-10T08:25:41;99670.03;;;0.04;75.87
36242;BME280;22283;42.748;12.732;2023-02-10T08:30:41;99656.84;;;0.31;72.27
36242;BME280;22283;42.748;12.732;2023-02-10T08:35:42;99668.69;;;0.69;70.77
36242;BME280;22283;42.748;12.732;2023-02-10T08:40:43;99662.38;;;0.96;69.42
36242;BME280;22283;42.748;12.732;2023-02-10T08:45:43;99675.13;;;1.22;67.75
36242;BME280;22283;42.748;12.732;2023-02-10T08:50:44;99683.66;;;1.39;66.45
36242;BME280;22283;42.748;12.732;2023-02-10T08:55:55;99692.97;;;1.59;65.42
36242;BME280;22283;42.748;12.732;2023-02-10T09:00:56;99690.16;;;1.74;65.13
36242;BME280;22283;42.748;12.732;2023-02-10T09:05:56;99710.84;;;1.89;65.11
36242;BME280;22283;42.748;12.732;2023-02-10T09:10:57;99708.97;;;2.01;63.92
36242;BME280;22283;42.748;12.732;2023-02-10T09:15:58;99693.19;;;2.08;64.75
36242;BME280;22283;42.748;12.732;2023-02-10T09:20:59;99694.59;;;2.34;64.52
36242;BME280;22283;42.748;12.732;2023-02-10T09:26:19;99697.66;;;2.62;63.17
36242;BME280;22283;42.748;12.732;2023-02-10T09:31:19;99703.50;;;2.78;62.01
36242;BME280;22283;42.748;12.732;2023-02-10T09:36:20;99705.03;;;2.89;62.51
36242;BME280;22283;42.748;12.732;2023-02-10T09:52:27;99726.50;;;3.07;60.83
36242;BME280;22283;42.748;12.732;2023-02-10T09:57:42;99733.25;;;3.20;59.94
36242;BME280;22283;42.748;12.732;2023-02-10T10:02:57;99733.25;;;3.20;60.67
36242;BME280;22283;42.748;12.732;2023-02-10T10:07:59;99731.94;;;3.45;60.08
36242;BME280;22283;42.748;12.732;2023-02-10T10:13:01;99730.53;;;3.71;58.80
36242;BME280;22283;42.748;12.732;2023-02-10T10:18:34;99732.81;;;3.88;57.90
36242;BME280;22283;42.748;12.732;2023-02-10T10:34:29;99722.66;;;4.14;55.72
36242;BME280;22283;42.748;12.732;2023-02-10T10:39:38;99715.34;;;4.30;55.13
36242;BME280;22283;42.748;12.732;2023-02-10T10:44:41;99705.31;;;4.49;54.98
36242;BME280;22283;42.748;12.732;2023-02-10T10:49:43;99689.34;;;4.58;54.58
36242;BME280;22283;42.748;12.732;2023-02-10T10:54:43;99693.72;;;4.58;52.23
36242;BME280;22283;42.748;12.732;2023-02-10T10:59:52;99687.44;;;4.65;52.77
36242;BME280;22283;42.748;12.732;2023-02-10T11:05:28;99674.28;;;4.68;52.09
36242;BME280;22283;42.748;12.732;2023-02-10T11:15:41;99671.41;;;5.11;51.67
36242;BME280;22283;42.748;12.732;2023-02-10T11:20:52;99662.78;;;5.08;50.89
36242;BME280;22283;42.748;12.732;2023-02-10T11:26:03;99643.00;;;5.27;49.74
36242;BME280;22283;42.748;12.732;2023-02-10T11:36:40;99645.09;;;5.46;48.02
36242;BME280;22283;42.748;12.732;2023-02-10T11:41:41;99624.56;;;5.60;45.66
36242;BME280;22283;42.748;12.732;2023-02-10T11:46:57;99629.47;;;5.72;46.36
36242;BME280;22283;42.748;12.732;2023-02-10T11:52:00;99616.16;;;5.78;45.83
36242;BME280;22283;42.748;12.732;2023-02-10T12:13:47;99593.34;;;6.10;44.21
36242;BME280;22283;42.748;12.732;2023-02-10T12:24:45;99596.47;;;6.21;43.20
36242;BME280;22283;42.748;12.732;2023-02-10T12:40:45;99593.75;;;6.51;41.55
36242;BME280;22283;42.748;12.732;2023-02-10T13:03:22;99573.53;;;6.26;43.13
36242;BME280;22283;42.748;12.732;2023-02-10T13:08:28;99560.91;;;6.37;42.87
36242;BME280;22283;42.748;12.732;2023-02-10T13:13:32;99566.03;;;6.40;44.26
36242;BME280;22283;42.748;12.732;2023-02-10T13:18:41;99558.16;;;6.40;44.70
36242;BME280;22283;42.748;12.732;2023-02-10T13:24:06;99553.19;;;6.58;44.72
36242;BME280;22283;42.748;12.732;2023-02-10T13:34:36;99555.75;;;6.84;46.06
36242;BME280;22283;42.748;12.732;2023-02-10T13:39:59;99551.25;;;6.63;45.54
36242;BME280;22283;42.748;12.732;2023-02-10T14:00:18;99573.41;;;6.56;44.42
36242;BME280;22283;42.748;12.732;2023-02-10T14:10:59;99562.78;;;6.34;43.78
36242;BME280;22283;42.748;12.732;2023-02-10T14:16:06;99571.00;;;6.50;43.75
36242;BME280;22283;42.748;12.732;2023-02-10T14:21:16;99576.25;;;6.50;42.23
36242;BME280;22283;42.748;12.732;2023-02-10T14:26:28;99571.66;;;6.30;43.39
36242;BME280;22283;42.748;12.732;2023-02-10T14:31:33;99568.69;;;6.14;43.88
36242;BME280;22283;42.748;12.732;2023-02-10T14:36:36;99572.19;;;6.13;44.37
36242;BME280;22283;42.748;12.732;2023-02-10T14:41:37;99573.19;;;6.09;44.04
36242;BME280;22283;42.748;12.732;2023-02-10T14:46:37;99569.34;;;5.93;44.16
36242;BME280;22283;42.748;12.732;2023-02-10T14:51:40;99564.25;;;5.86;44.62
36242;BME280;22283;42.748;12.732;2023-02-10T14:56:49;99567.78;;;5.85;44.20
36242;BME280;22283;42.748;12.732;2023-02-10T15:01:52;99567.91;;;5.82;44.48
36242;BME280;22283;42.748;12.732;2023-02-10T15:06:55;99566.34;;;5.75;45.25
36242;BME280;22283;42.748;12.732;2023-02-10T15:12:05;99574.50;;;5.66;44.71
36242;BME280;22283;42.748;12.732;2023-02-10T15:17:20;99575.69;;;5.56;45.07
36242;BME280;22283;42.748;12.732;2023-02-10T15:27:40;99571.88;;;5.36;45.30
36242;BME280;22283;42.748;12.732;2023-02-10T15:32:48;99586.28;;;5.22;46.00
36242;BME280;22283;42.748;12.732;2023-02-10T15:37:52;99585.63;;;5.15;46.58
36242;BME280;22283;42.748;12.732;2023-02-10T15:42:58;99591.19;;;5.03;46.36
36242;BME280;22283;42.748;12.732;2023-02-10T15:48:07;99583.00;;;4.82;46.87
36242;BME280;22283;42.748;12.732;2023-02-10T15:53:11;99587.00;;;4.63;46.81
36242;BME280;22283;42.748;12.732;2023-02-10T15:58:13;99583.94;;;4.46;47.29
36242;BME280;22283;42.748;12.732;2023-02-10T16:03:15;99595.66;;;4.31;47.07
36242;BME280;22283;42.748;12.732;2023-02-10T16:08:21;99595.47;;;4.03;47.83
36242;BME280;22283;42.748;12.732;2023-02-10T16:13:22;99605.75;;;3.72;48.48
36242;BME280;22283;42.748;12.732;2023-02-10T16:18:24;99617.06;;;3.33;49.42
36242;BME280;22283;42.748;12.732;2023-02-10T16:23:26;99615.59;;;3.18;49.73
36242;BME280;22283;42.748;12.732;2023-02-10T16:28:28;99628.41;;;2.86;50.21
36242;BME280;22283;42.748;12.732;2023-02-10T16:33:31;99641.09;;;2.56;50.98
36242;BME280;22283;42.748;12.732;2023-02-10T16:38:34;99637.25;;;2.26;51.62
36242;BME280;22283;42.748;12.732;2023-02-10T16:43:35;99650.50;;;2.14;51.88
36242;BME280;22283;42.748;12.732;2023-02-10T16:48:36;99662.19;;;1.87;51.92
36242;BME280;22283;42.748;12.732;2023-02-10T16:53:37;99660.69;;;1.66;52.28
36242;BME280;22283;42.748;12.732;2023-02-10T16:58:38;99660.06;;;1.48;52.74
36242;BME280;22283;42.748;12.732;2023-02-10T17:03:39;99676.75;;;1.35;53.45
36242;BME280;22283;42.748;12.732;2023-02-10T17:08:39;99684.88;;;1.05;54.34
36242;BME280;22283;42.748;12.732;2023-02-10T17:13:40;99685.81;;;0.94;55.18
36242;BME280;22283;42.748;12.732;2023-02-10T17:18:40;99687.75;;;0.74;55.07
36242;BME280;22283;42.748;12.732;2023-02-10T17:23:41;99687.84;;;0.65;56.18
36242;BME280;22283;42.748;12.732;2023-02-10T17:28:42;99682.66;;;0.59;57.47
36242;BME280;22283;42.748;12.732;2023-02-10T17:33:43;99698.38;;;0.49;57.79
36242;BME280;22283;42.748;12.732;2023-02-10T17:38:49;99706.28;;;0.34;58.80
36242;BME280;22283;42.748;12.732;2023-02-10T17:43:58;99721.97;;;0.28;59.70
36242;BME280;22283;42.748;12.732;2023-02-10T17:49:05;99730.72;;;0.16;60.61
36242;BME280;22283;42.748;12.732;2023-02-10T17:54:06;99735.97;;;0.06;61.81
36242;BME280;22283;42.748;12.732;2023-02-10T17:59:06;99743.84;;;-0.10;63.68
36242;BME280;22283;42.748;12.732;2023-02-10T18:04:08;99745.59;;;-0.21;65.17
36242;BME280;22283;42.748;12.732;2023-02-10T18:09:09;99760.38;;;-0.26;65.91
36242;BME280;22283;42.748;12.732;2023-02-10T18:14:11;99754.34;;;-0.40;66.74
36242;BME280;22283;42.748;12.732;2023-02-10T18:19:11;99750.06;;;-0.51;67.14
36242;BME280;22283;42.748;12.732;2023-02-10T18:24:12;99759.59;;;-0.54;67.89
36242;BME280;22283;42.748;12.732;2023-02-10T18:29:13;99768.28;;;-0.63;69.63
36242;BME280;22283;42.748;12.732;2023-02-10T18:34:13;99771.75;;;-0.68;69.46
36242;BME280;22283;42.748;12.732;2023-02-10T18:39:14;99773.50;;;-0.81;70.59
36242;BME280;22283;42.748;12.732;2023-02-10T18:44:15;99777.84;;;-0.91;71.36
36242;BME280;22283;42.748;12.732;2023-02-10T18:49:15;99783.91;;;-0.93;71.62
36242;BME280;22283;42.748;12.732;2023-02-10T18:54:16;99771.75;;;-1.04;72.29
36242;BME280;22283;42.748;12.732;2023-02-10T18:59:17;99780.44;;;-1.20;73.61
36242;BME280;22283;42.748;12.732;2023-02-10T19:04:20;99777.81;;;-1.25;74.03
36242;BME280;22283;42.748;12.732;2023-02-10T19:09:21;99779.53;;;-1.36;73.66
36242;BME280;22283;42.748;12.732;2023-02-10T19:14:22;99779.53;;;-1.53;76.45
36242;BME280;22283;42.748;12.732;2023-02-10T19:19:23;99751.78;;;-1.75;76.49
36242;BME280;22283;42.748;12.732;2023-02-10T19:24:23;99778.63;;;-1.73;77.53
36242;BME280;22283;42.748;12.732;2023-02-10T19:29:24;99785.53;;;-1.72;77.94
36242;BME280;22283;42.748;12.732;2023-02-10T19:34:25;99793.19;;;-2.03;78.31
36242;BME280;22283;42.748;12.732;2023-02-10T19:39:25;99809.63;;;-2.04;81.00
36242;BME280;22283;42.748;12.732;2023-02-10T19:44:26;99821.72;;;-2.03;80.29
36242;BME280;22283;42.748;12.732;2023-02-10T19:49:26;99820.00;;;-2.10;80.95
36242;BME280;22283;42.748;12.732;2023-02-10T19:54:27;99823.38;;;-2.23;81.16
36242;BME280;22283;42.748;12.732;2023-02-10T19:59:29;99824.22;;;-2.27;82.21
36242;BME280;22283;42.748;12.732;2023-02-10T20:04:30;99814.66;;;-2.34;83.48
36242;BME280;22283;42.748;12.732;2023-02-10T20:09:31;99820.69;;;-2.40;83.34
36242;BME280;22283;42.748;12.732;2023-02-10T20:14:32;99818.91;;;-2.45;83.58
36242;BME280;22283;42.748;12.732;2023-02-10T20:19:33;99824.91;;;-2.57;85.02
36242;BME280;22283;42.748;12.732;2023-02-10T20:24:34;99822.25;;;-2.65;86.16
36242;BME280;22283;42.748;12.732;2023-02-10T20:29:34;99828.31;;;-2.63;85.67
36242;BME280;22283;42.748;12.732;2023-02-10T20:34:35;99817.19;;;-2.47;84.81
36242;BME280;22283;42.748;12.732;2023-02-10T20:39:36;99814.72;;;-2.28;83.41
36242;BME280;22283;42.748;12.732;2023-02-10T20:44:36;99820.78;;;-2.23;82.58
36242;BME280;22283;42.748;12.732;2023-02-10T20:49:37;99830.06;;;-2.59;84.52
36242;BME280;22283;42.748;12.732;2023-02-10T20:54:38;99834.22;;;-2.81;86.18
36242;BME280;22283;42.748;12.732;2023-02-10T20:59:38;99831.56;;;-2.88;87.98
36242;BME280;22283;42.748;12.732;2023-02-10T21:04:39;99835.97;;;-2.80;87.14
36242;BME280;22283;42.748;12.732;2023-02-10T21:09:40;99829.81;;;-2.92;88.52
36242;BME280;22283;42.748;12.732;2023-02-10T21:14:41;99820.97;;;-3.13;89.89
36242;BME280;22283;42.748;12.732;2023-02-10T21:19:42;99814.19;;;-3.05;89.17
36242;BME280;22283;42.748;12.732;2023-02-10T21:24:42;99820.88;;;-3.25;90.77
36242;BME280;22283;42.748;12.732;2023-02-10T21:29:43;99813.03;;;-3.34;91.98
36242;BME280;22283;42.748;12.732;2023-02-10T21:34:44;99824.22;;;-3.40;91.92
36242;BME280;22283;42.748;12.732;2023-02-10T21:39:45;99820.69;;;-3.47;92.76
36242;BME280;22283;42.748;12.732;2023-02-10T21:44:46;99816.31;;;-3.51;92.92
36242;BME280;22283;42.748;12.732;2023-02-10T21:49:47;99826.69;;;-3.52;93.98
36242;BME280;22283;42.748;12.732;2023-02-10T21:54:48;99821.63;;;-3.40;92.33
36242;BME280;22283;42.748;12.732;2023-02-10T21:59:49;99831.09;;;-3.40;92.33
36242;BME280;22283;42.748;12.732;2023-02-10T22:04:49;99824.28;;;-3.29;90.02
36242;BME280;22283;42.748;12.732;2023-02-10T22:09:50;99822.75;;;-3.12;89.08
36242;BME280;22283;42.748;12.732;2023-02-10T22:14:51;99823.38;;;-3.33;89.48
36242;BME280;22283;42.748;12.732;2023-02-10T22:19:51;99844.91;;;-3.38;89.52
36242;BME280;22283;42.748;12.732;2023-02-10T22:24:52;99845.00;;;-3.29;87.31
36242;BME280;22283;42.748;12.732;2023-02-10T22:29:53;99849.13;;;-3.48;87.33
36242;BME280;22283;42.748;12.732;2023-02-10T22:34:53;99851.56;;;-3.60;88.54
36242;BME280;22283;42.748;12.732;2023-02-10T22:39:54;99850.69;;;-3.62;90.44
36242;BME280;22283;42.748;12.732;2023-02-10T22:44:55;99866.25;;;-3.58;91.04
36242;BME280;22283;42.748;12.732;2023-02-10T22:49:55;99852.31;;;-3.72;92.25
36242;BME280;22283;42.748;12.732;2023-02-10T22:54:57;99857.44;;;-3.75;92.20
36242;BME280;22283;42.748;12.732;2023-02-10T22:59:59;99860.13;;;-3.66;91.14
36242;BME280;22283;42.748;12.732;2023-02-10T23:05:00;99851.38;;;-3.77;91.68
36242;BME280;22283;42.748;12.732;2023-02-10T23:10:01;99854.81;;;-3.77;93.24
36242;BME280;22283;42.748;12.732;2023-02-10T23:15:02;99856.44;;;-3.86;93.81
36242;BME280;22283;42.748;12.732;2023-02-10T23:20:03;99858.97;;;-3.91;93.70
36242;BME280;22283;42.748;12.732;2023-02-10T23:25:05;99859.81;;;-3.93;94.71
36242;BME280;22283;42.748;12.732;2023-02-10T23:30:08;99854.66;;;-3.92;95.16
36242;BME280;22283;42.748;12.732;2023-02-10T23:35:08;99866.69;;;-3.96;94.69
36242;BME280;22283;42.748;12.732;2023-02-10T23:40:09;99870.91;;;-4.02;95.85
36242;BME280;22283;42.748;12.732;2023-02-10T23:45:10;99863.09;;;-4.07;96.14
36242;BME280;22283;42.748;12.732;2023-02-10T23:50:11;99870.69;;;-4.19;96.30
36242;BME280;22283;42.748;12.732;2023-02-10T23:55:12;99857.75;;;-4.19;96.92
